Time;durP1;ratioP1;P1;durP2;ratioP2;P2;SDS_P1;SDS_P2;PMS_P1;PMS_P2;Temp;Humidity;BMP_temperature;BMP_pressure;BME280_temperature;BME280_humidity;BME280_pressure;Samples;Min_cycle;Max_cycle;Signal;HPM_P1;HPM_P2
2024/02/07 00:01:59;;;;;;;2.00;0.70;;;9.00;99.90;;;;;;5051146;28;20285;-64
2024/02/07 00:04:26;;;;;;;1.53;0.57;;;9.00;99.90;;;;;;5051084;28;20226;-64
2024/02/07 00:06:53;;;;;;;1.17;0.60;;;8.90;99.90;;;;;;5051436;28;20307;-64
2024/02/07 00:09:20;;;;;;;0.90;0.53;;;8.90;99.90;;;;;;5038650;28;20196;-64
2024/02/07 00:11:48;;;;;;;1.70;0.60;;;8.90;99.90;;;;;;5052027;28;20198;-64
2024/02/07 00:14:15;;;;;;;0.50;0.43;;;8.90;99.90;;;;;;5051885;28;20578;-63
2024/02/07 00:16:43;;;;;;;0.80;0.60;;;8.90;99.90;;;;;;5049850;28;20203;-63
2024/02/07 00:19:10;;;;;;;0.20;0.20;;;8.90;99.90;;;;;;5038816;28;20576;-63
2024/02/07 00:21:37;;;;;;;1.50;0.70;;;8.90;99.90;;;;;;5050980;28;20312;-63
2024/02/07 00:24:05;;;;;;;0.60;0.60;;;8.90;99.90;;;;;;5050540;28;20202;-64
2024/02/07 00:26:34;;;;;;;0.60;0.53;;;8.90;99.90;;;;;;5050677;28;20209;-64
2024/02/07 00:29:01;;;;;;;1.80;0.70;;;8.80;99.90;;;;;;5050821;28;20292;-64
2024/02/07 00:31:29;;;;;;;2.17;0.80;;;8.80;99.90;;;;;;5051098;28;20248;-64
2024/02/07 00:33:57;;;;;;;2.83;0.80;;;8.70;99.90;;;;;;5050671;28;20213;-64
2024/02/07 00:36:24;;;;;;;3.00;0.60;;;8.70;99.90;;;;;;5051149;28;20205;-65
2024/02/07 00:38:51;;;;;;;0.47;0.47;;;8.80;99.90;;;;;;5050742;28;20214;-65
2024/02/07 00:41:22;;;;;;;0.53;0.53;;;8.80;99.90;;;;;;5035321;28;20593;-65
2024/02/07 00:43:49;;;;;;;2.83;0.70;;;8.70;99.90;;;;;;5051245;28;20284;-63
2024/02/07 00:46:17;;;;;;;0.73;0.57;;;8.70;99.90;;;;;;5050428;28;20695;-64
2024/02/07 00:48:44;;;;;;;2.97;0.80;;;8.70;99.90;;;;;;5050187;28;20719;-64
2024/02/07 00:51:12;;;;;;;1.80;0.77;;;8.60;99.90;;;;;;5050246;28;20197;-64
2024/02/07 00:53:40;;;;;;;0.37;0.33;;;8.60;99.90;;;;;;5050974;28;20203;-64
2024/02/07 00:56:07;;;;;;;1.03;0.80;;;8.60;99.90;;;;;;5049479;28;20199;-64
2024/02/07 00:58:34;;;;;;;1.00;0.73;;;8.50;99.90;;;;;;5050521;28;20226;-63
2024/02/07 01:01:03;;;;;;;0.77;0.70;;;8.50;99.90;;;;;;5050538;28;20653;-63
2024/02/07 01:03:31;;;;;;;0.53;0.47;;;8.60;99.90;;;;;;5050418;28;20238;-63
2024/02/07 01:06:00;;;;;;;0.80;0.50;;;8.60;99.90;;;;;;5050580;28;20214;-63
2024/02/07 01:08:29;;;;;;;0.40;0.40;;;8.60;99.90;;;;;;5048258;28;20288;-64
2024/02/07 01:10:55;;;;;;;1.60;0.73;;;8.60;99.90;;;;;;5044494;28;20228;-65
2024/02/07 01:13:23;;;;;;;2.97;0.63;;;8.50;99.90;;;;;;5050509;28;20243;-65
2024/02/07 01:15:50;;;;;;;1.07;0.53;;;8.50;99.90;;;;;;5049490;28;20207;-65
2024/02/07 01:18:17;;;;;;;2.80;0.70;;;8.50;99.90;;;;;;5049345;28;20199;-65
2024/02/07 01:20:44;;;;;;;1.53;0.80;;;8.50;99.90;;;;;;5050198;28;20274;-65
2024/02/07 01:23:11;;;;;;;1.00;0.60;;;8.50;99.90;;;;;;5049749;28;20256;-65
2024/02/07 01:25:40;;;;;;;1.30;0.60;;;8.50;99.90;;;;;;5048813;28;20256;-64
2024/02/07 01:28:08;;;;;;;0.87;0.80;;;8.50;99.90;;;;;;5050164;28;20743;-65
2024/02/07 01:30:35;;;;;;;0.60;0.57;;;8.50;99.90;;;;;;5050154;28;20621;-65
2024/02/07 01:33:02;;;;;;;1.43;0.60;;;8.50;99.90;;;;;;5050031;28;20261;-65
2024/02/07 01:35:31;;;;;;;2.33;0.80;;;8.40;99.90;;;;;;5050266;28;20695;-65
2024/02/07 01:38:04;;;;;;;2.33;0.63;;;8.40;99.90;;;;;;5050088;28;20194;-63
2024/02/07 01:40:42;;;;;;;1.70;0.90;;;8.50;99.90;;;;;;5048656;28;20197;-64
2024/02/07 01:43:11;;;;;;;1.40;0.67;;;8.40;99.90;;;;;;5050413;28;20265;-64
2024/02/07 01:45:38;;;;;;;1.70;0.70;;;8.40;99.90;;;;;;5054284;28;20286;-64
2024/02/07 01:48:07;;;;;;;1.30;0.60;;;8.40;99.90;;;;;;5047752;28;20608;-64
2024/02/07 01:50:37;;;;;;;4.17;0.90;;;8.30;99.90;;;;;;5048563;28;20261;-64
2024/02/07 01:53:06;;;;;;;1.90;0.60;;;8.30;99.90;;;;;;5050096;28;20724;-64
2024/02/07 01:55:35;;;;;;;4.37;0.80;;;8.30;99.90;;;;;;5048162;28;20210;-65
2024/02/07 01:58:05;;;;;;;2.20;1.00;;;8.30;99.90;;;;;;5050066;28;20193;-64
2024/02/07 02:00:33;;;;;;;2.30;0.57;;;8.20;99.90;;;;;;5049930;28;20737;-64
2024/02/07 02:03:00;;;;;;;2.37;0.70;;;8.20;99.90;;;;;;5049137;28;20675;-64
2024/02/07 02:05:27;;;;;;;1.83;0.80;;;8.20;99.90;;;;;;5042938;28;20203;-64
2024/02/07 02:07:54;;;;;;;1.63;0.87;;;8.20;99.90;;;;;;5049462;28;20206;-64
2024/02/07 02:10:21;;;;;;;2.63;0.83;;;8.20;99.90;;;;;;5048636;28;20685;-64
2024/02/07 02:12:49;;;;;;;5.80;1.20;;;8.20;99.90;;;;;;5049996;28;20611;-64
2024/02/07 02:15:17;;;;;;;0.50;0.50;;;8.20;99.90;;;;;;5049775;28;20198;-64
2024/02/07 02:17:45;;;;;;;4.10;0.70;;;8.20;99.90;;;;;;5049200;28;20684;-64
2024/02/07 02:20:12;;;;;;;3.03;0.70;;;8.20;99.90;;;;;;5049501;28;20211;-65
2024/02/07 02:22:52;;;;;;;1.70;0.80;;;8.20;99.90;;;;;;5049528;28;20199;-64
2024/02/07 02:25:58;;;;;;;4.57;0.73;;;8.20;99.90;;;;;;5041831;28;20191;-64
2024/02/07 02:28:31;;;;;;;1.47;0.60;;;8.10;99.90;;;;;;5045113;28;20224;-65
2024/02/07 02:31:03;;;;;;;5.00;1.17;;;8.10;99.90;;;;;;5049995;28;20198;-64
2024/02/07 02:33:33;;;;;;;1.87;0.70;;;8.10;99.90;;;;;;5050318;28;20191;-65
2024/02/07 02:36:04;;;;;;;4.63;1.17;;;8.10;99.90;;;;;;5049680;28;20277;-65
2024/02/07 02:38:35;;;;;;;1.83;0.60;;;8.10;99.90;;;;;;5050403;28;20194;-65
2024/02/07 02:41:03;;;;;;;2.50;0.80;;;8.10;99.90;;;;;;5051754;28;20216;-64
2024/02/07 02:43:31;;;;;;;2.63;0.83;;;8.10;99.90;;;;;;5053536;28;20598;-64
2024/02/07 02:45:58;;;;;;;2.63;0.60;;;8.10;99.90;;;;;;5053345;28;20194;-65
2024/02/07 02:48:27;;;;;;;5.43;1.10;;;8.00;99.90;;;;;;5052494;28;20214;-65
2024/02/07 02:50:54;;;;;;;4.10;0.77;;;8.00;99.90;;;;;;5042456;28;20197;-65
2024/02/07 02:53:21;;;;;;;3.50;0.90;;;8.00;99.90;;;;;;5053019;28;20203;-65
2024/02/07 02:55:49;;;;;;;3.30;0.93;;;7.90;99.90;;;;;;5051694;28;20196;-64
2024/02/07 02:58:18;;;;;;;2.27;0.87;;;8.00;99.90;;;;;;5053432;28;20200;-64
2024/02/07 03:00:50;;;;;;;4.23;1.13;;;7.90;99.90;;;;;;5039413;28;20206;-64
2024/02/07 03:03:17;;;;;;;3.73;1.00;;;8.00;99.90;;;;;;5041923;28;20222;-64
2024/02/07 03:05:58;;;;;;;3.97;1.07;;;8.00;99.90;;;;;;5052609;28;21468;-64
2024/02/07 03:08:39;;;;;;;4.40;1.37;;;8.00;99.90;;;;;;5053238;28;20210;-64
2024/02/07 03:11:08;;;;;;;3.37;1.10;;;7.90;99.90;;;;;;5043382;28;20285;-63
2024/02/07 03:13:37;;;;;;;4.73;1.00;;;7.90;99.90;;;;;;5049638;28;20676;-64
2024/02/07 03:16:06;;;;;;;2.13;0.97;;;8.00;99.90;;;;;;5049272;28;20593;-64
2024/02/07 03:18:35;;;;;;;2.30;0.80;;;7.90;99.90;;;;;;5049854;28;20280;-64
2024/02/07 03:21:06;;;;;;;3.57;0.83;;;7.90;99.90;;;;;;5052767;28;20198;-64
2024/02/07 03:23:33;;;;;;;7.27;1.20;;;7.90;99.90;;;;;;5052585;28;20206;-64
2024/02/07 03:26:01;;;;;;;4.80;1.20;;;7.90;99.90;;;;;;5051387;28;20603;-64
2024/02/07 03:28:30;;;;;;;3.13;0.93;;;7.90;99.90;;;;;;5052483;28;20240;-63
2024/02/07 03:30:58;;;;;;;1.20;0.80;;;7.90;99.90;;;;;;5052270;28;20210;-64
2024/02/07 03:33:26;;;;;;;1.13;0.83;;;7.90;99.90;;;;;;5051567;28;20194;-64
2024/02/07 03:35:54;;;;;;;4.07;1.00;;;8.00;99.90;;;;;;5052246;28;20273;-64
2024/02/07 03:38:24;;;;;;;2.80;0.87;;;7.90;99.90;;;;;;5052142;28;20205;-64
2024/02/07 03:40:51;;;;;;;4.17;1.10;;;7.90;99.90;;;;;;5048999;28;20601;-63
2024/02/07 03:43:18;;;;;;;4.00;0.90;;;7.90;99.90;;;;;;5050704;28;20333;-63
2024/02/07 03:45:45;;;;;;;4.27;1.10;;;7.90;99.90;;;;;;5052098;28;20202;-64
2024/02/07 03:48:13;;;;;;;3.67;0.60;;;7.90;99.90;;;;;;5051256;28;20229;-63
2024/02/07 03:50:40;;;;;;;2.17;0.97;;;7.90;99.90;;;;;;5051691;28;20607;-64
2024/02/07 03:53:08;;;;;;;3.47;1.07;;;7.90;99.90;;;;;;5051507;28;20217;-64
2024/02/07 03:55:37;;;;;;;4.00;0.83;;;7.90;99.90;;;;;;5050614;28;20273;-64
2024/02/07 03:58:06;;;;;;;3.60;1.27;;;7.90;99.90;;;;;;5043726;28;20203;-64
2024/02/07 04:00:33;;;;;;;1.30;0.80;;;7.90;99.90;;;;;;5043089;28;20201;-64
2024/02/07 04:03:01;;;;;;;3.60;1.27;;;8.00;99.90;;;;;;5050977;28;20695;-64
2024/02/07 04:05:28;;;;;;;6.20;1.20;;;8.00;99.90;;;;;;5051590;28;20194;-64
2024/02/07 04:07:55;;;;;;;4.87;1.30;;;7.90;99.90;;;;;;5051723;28;20210;-64
2024/02/07 04:10:23;;;;;;;3.73;1.20;;;7.90;99.90;;;;;;5049902;28;20190;-64
2024/02/07 05:15:51;;;;;;;9.17;1.83;;;7.80;99.90;;;;;;5049826;28;20194;-63
2024/02/07 05:18:19;;;;;;;8.13;1.97;;;7.80;99.90;;;;;;5046531;28;20193;-64
2024/02/07 05:20:48;;;;;;;11.00;1.90;;;7.80;99.90;;;;;;5050236;28;20221;-64
2024/02/07 05:23:16;;;;;;;4.60;1.40;;;7.80;99.90;;;;;;5049936;28;20273;-63
2024/02/07 05:25:44;;;;;;;3.37;1.30;;;7.80;99.90;;;;;;5049036;28;20195;-63
2024/02/07 05:28:12;;;;;;;7.67;1.60;;;7.90;99.90;;;;;;5050266;28;20214;-63
2024/02/07 05:30:39;;;;;;;6.97;1.77;;;7.90;99.90;;;;;;5034928;28;20205;-63
2024/02/07 05:33:06;;;;;;;4.10;1.30;;;7.90;99.90;;;;;;5049493;28;20711;-63
2024/02/07 05:35:35;;;;;;;7.50;1.90;;;7.80;99.90;;;;;;5049973;28;20204;-64
2024/02/07 05:38:02;;;;;;;6.83;1.90;;;7.90;99.90;;;;;;5050071;28;20194;-64
2024/02/07 05:40:30;;;;;;;11.83;1.97;;;7.80;99.90;;;;;;5044856;28;20274;-64
2024/02/07 05:42:57;;;;;;;9.77;2.03;;;7.80;99.90;;;;;;5050383;28;20198;-65
2024/02/07 05:45:24;;;;;;;6.80;1.90;;;7.90;99.90;;;;;;5050020;28;20202;-64
2024/02/07 05:47:51;;;;;;;8.70;1.90;;;7.90;99.90;;;;;;5049097;28;20213;-64
2024/02/07 05:50:18;;;;;;;8.60;1.87;;;7.90;99.90;;;;;;5049851;28;20210;-64
2024/02/07 05:52:46;;;;;;;3.73;1.53;;;7.90;99.90;;;;;;5049620;28;20269;-64
2024/02/07 05:55:13;;;;;;;9.43;2.13;;;7.90;99.90;;;;;;5048536;28;20236;-64
2024/02/07 05:57:40;;;;;;;4.33;1.53;;;7.90;99.90;;;;;;5049831;28;20304;-63
2024/02/07 06:00:09;;;;;;;7.10;1.83;;;7.90;99.90;;;;;;5050172;28;20190;-63
2024/02/07 06:02:39;;;;;;;4.30;1.63;;;7.90;99.90;;;;;;5049213;28;20648;-63
2024/02/07 06:05:06;;;;;;;9.93;1.93;;;7.90;99.90;;;;;;5048684;28;20328;-65
2024/02/07 06:07:34;;;;;;;8.27;1.90;;;7.90;99.90;;;;;;5046408;28;20237;-63
2024/02/07 06:10:03;;;;;;;7.27;2.07;;;7.90;99.90;;;;;;5047702;28;20221;-63
2024/02/07 06:12:31;;;;;;;6.73;1.63;;;7.90;99.90;;;;;;5049623;28;20194;-64
2024/02/07 06:14:58;;;;;;;5.17;1.50;;;7.80;99.90;;;;;;5051972;28;20286;-65
2024/02/07 06:17:26;;;;;;;4.80;1.50;;;7.80;99.90;;;;;;5052781;28;20300;-64
2024/02/07 06:19:53;;;;;;;10.87;1.87;;;7.70;99.90;;;;;;5053969;28;20645;-64
2024/02/07 06:22:20;;;;;;;3.10;1.10;;;7.70;99.90;;;;;;5053347;28;20255;-64
2024/02/07 06:24:47;;;;;;;3.80;1.30;;;7.60;99.90;;;;;;5052974;28;20228;-64
2024/02/07 06:27:16;;;;;;;5.03;1.23;;;7.60;99.90;;;;;;5051144;28;20312;-64
2024/02/07 06:29:43;;;;;;;6.83;1.20;;;7.60;99.90;;;;;;5053481;28;20288;-64
2024/02/07 06:32:10;;;;;;;4.90;1.27;;;7.60;99.90;;;;;;5053083;28;20226;-64
2024/02/07 06:34:37;;;;;;;4.97;1.50;;;7.60;99.90;;;;;;5052815;28;20201;-64
2024/02/07 06:37:04;;;;;;;4.57;1.50;;;7.60;99.90;;;;;;5040047;28;20280;-64
2024/02/07 06:39:31;;;;;;;4.60;1.20;;;7.60;99.90;;;;;;5051227;28;20280;-64
2024/02/07 06:41:59;;;;;;;8.07;1.50;;;7.50;99.90;;;;;;5052525;28;20190;-64
2024/02/07 06:44:27;;;;;;;5.67;1.67;;;7.50;99.90;;;;;;5046366;28;20199;-64
2024/02/07 06:46:54;;;;;;;6.97;1.70;;;7.50;99.90;;;;;;5052919;28;20221;-65
2024/02/07 06:49:22;;;;;;;4.90;1.67;;;7.50;99.90;;;;;;5052483;28;20234;-63
2024/02/07 06:51:49;;;;;;;7.13;1.60;;;7.50;99.90;;;;;;5052867;28;20281;-63
2024/02/07 06:54:16;;;;;;;6.70;1.87;;;7.40;99.90;;;;;;5052279;28;20202;-64
2024/02/07 06:56:43;;;;;;;5.17;1.23;;;7.40;99.90;;;;;;5052721;28;20190;-64
2024/02/07 06:59:12;;;;;;;5.37;1.70;;;7.50;99.90;;;;;;5053156;28;20233;-64
2024/02/07 07:01:41;;;;;;;7.30;2.00;;;7.50;99.90;;;;;;5034333;28;20576;-64
2024/02/07 07:04:08;;;;;;;10.13;2.10;;;7.50;99.90;;;;;;5052107;28;20593;-64
2024/02/07 07:06:35;;;;;;;7.50;1.70;;;7.50;99.90;;;;;;5051441;28;20268;-64
2024/02/07 07:09:02;;;;;;;4.40;1.30;;;7.60;99.90;;;;;;5051777;28;20243;-64
2024/02/07 07:11:29;;;;;;;7.53;1.90;;;7.60;99.90;;;;;;5052056;28;20206;-63
2024/02/07 07:13:57;;;;;;;6.47;1.60;;;7.60;99.90;;;;;;5048045;28;20543;-64
2024/02/07 07:16:24;;;;;;;3.73;1.70;;;7.60;99.90;;;;;;5050315;28;20285;-63
2024/02/07 07:18:53;;;;;;;12.53;2.40;;;7.60;99.90;;;;;;5052271;28;20194;-64
2024/02/07 07:21:20;;;;;;;11.53;2.20;;;7.70;99.90;;;;;;5051828;28;20198;-64
2024/02/07 07:23:47;;;;;;;5.83;1.40;;;7.70;99.90;;;;;;5051478;28;20197;-65
2024/02/07 07:26:14;;;;;;;7.30;2.13;;;7.60;99.90;;;;;;5050974;28;20205;-64
2024/02/07 07:28:41;;;;;;;7.00;1.77;;;7.60;99.90;;;;;;5052401;28;20218;-64
2024/02/07 07:31:09;;;;;;;9.60;2.37;;;7.70;99.90;;;;;;5052693;28;20201;-64
2024/02/07 07:33:36;;;;;;;5.87;2.00;;;7.70;99.90;;;;;;5040889;28;20271;-64
2024/02/07 07:36:05;;;;;;;8.73;2.17;;;7.70;99.90;;;;;;5052130;28;20378;-64
2024/02/07 07:38:32;;;;;;;7.43;2.00;;;7.70;99.90;;;;;;5052519;28;20269;-64
2024/02/07 07:40:59;;;;;;;4.80;2.03;;;7.80;99.90;;;;;;5047886;28;20585;-64
2024/02/07 07:43:26;;;;;;;8.77;2.40;;;7.80;99.90;;;;;;5051161;28;20243;-63
2024/02/07 07:45:53;;;;;;;4.87;1.77;;;7.80;99.90;;;;;;5039519;28;20194;-64
2024/02/07 07:48:20;;;;;;;10.07;2.40;;;7.70;99.90;;;;;;5051222;28;20221;-64
2024/02/07 07:50:47;;;;;;;6.53;1.83;;;7.80;99.90;;;;;;5052077;28;20198;-64
2024/02/07 07:53:16;;;;;;;3.97;1.43;;;7.70;99.90;;;;;;5051643;28;20201;-64
2024/02/07 07:55:43;;;;;;;4.93;1.37;;;7.70;99.90;;;;;;5050983;28;20194;-64
2024/02/07 07:58:10;;;;;;;5.70;1.43;;;7.60;99.90;;;;;;5051755;28;20285;-64
2024/02/07 08:00:37;;;;;;;3.43;1.30;;;7.60;99.90;;;;;;5051719;28;20661;-64
2024/02/07 08:03:04;;;;;;;3.80;1.23;;;7.60;99.90;;;;;;5050903;28;20202;-64
2024/02/07 08:05:32;;;;;;;3.43;1.70;;;7.60;99.90;;;;;;5051730;28;20194;-64
2024/02/07 08:07:59;;;;;;;3.53;1.67;;;7.50;99.90;;;;;;5051974;28;20598;-64
2024/02/07 08:10:27;;;;;;;8.20;2.10;;;7.50;99.90;;;;;;5045917;28;20657;-64
2024/02/07 08:12:54;;;;;;;3.97;1.50;;;7.60;99.90;;;;;;5051683;28;20202;-64
2024/02/07 08:15:21;;;;;;;3.20;1.50;;;7.50;99.90;;;;;;5051116;28;20206;-63
2024/02/07 08:17:48;;;;;;;6.37;1.53;;;7.40;99.90;;;;;;5050801;28;20198;-64
2024/02/07 08:20:16;;;;;;;4.90;1.13;;;7.30;99.90;;;;;;5051929;28;20607;-64
2024/02/07 08:22:43;;;;;;;4.97;1.10;;;7.30;99.90;;;;;;5051228;28;20198;-64
2024/02/07 08:25:10;;;;;;;7.07;2.23;;;7.30;99.90;;;;;;5046152;28;20597;-64
2024/02/07 08:27:39;;;;;;;2.77;0.90;;;7.30;99.90;;;;;;5051887;28;20621;-64
2024/02/07 08:30:07;;;;;;;3.83;1.50;;;7.30;99.90;;;;;;5051476;28;20213;-64
2024/02/07 08:32:34;;;;;;;2.73;1.30;;;7.30;99.90;;;;;;5050697;28;20292;-64
2024/02/07 08:35:01;;;;;;;3.50;1.30;;;7.40;99.90;;;;;;5046974;28;20198;-64
2024/02/07 08:37:28;;;;;;;3.83;1.27;;;7.40;99.90;;;;;;5050729;28;20206;-64
2024/02/07 08:39:55;;;;;;;2.30;1.20;;;7.40;99.90;;;;;;5050178;28;20569;-64
2024/02/07 08:42:22;;;;;;;4.37;1.53;;;7.30;99.90;;;;;;5051313;28;20626;-64
2024/02/07 08:44:51;;;;;;;2.47;1.20;;;7.20;99.90;;;;;;5049519;28;20209;-64
2024/02/07 08:47:18;;;;;;;2.00;0.90;;;7.20;99.90;;;;;;5050816;28;20221;-64
2024/02/07 08:49:45;;;;;;;2.53;0.90;;;7.20;99.90;;;;;;5050746;28;20573;-64
2024/02/07 08:52:12;;;;;;;3.30;1.17;;;7.20;99.90;;;;;;5050843;28;20202;-64
2024/02/07 08:54:39;;;;;;;3.90;1.20;;;7.20;99.90;;;;;;5048806;28;20212;-64
2024/02/07 08:57:06;;;;;;;3.43;1.10;;;7.20;99.90;;;;;;5051233;28;20201;-64
2024/02/07 08:59:33;;;;;;;4.07;1.50;;;7.30;99.90;;;;;;5050864;28;20198;-64
2024/02/07 09:02:01;;;;;;;2.70;1.20;;;7.30;99.90;;;;;;5050581;28;20205;-64
2024/02/07 09:04:28;;;;;;;2.77;1.23;;;7.30;99.90;;;;;;5049611;28;20232;-64
2024/02/07 09:06:55;;;;;;;3.03;1.10;;;7.30;99.90;;;;;;5051063;28;20201;-64
2024/02/07 09:09:22;;;;;;;3.43;1.50;;;7.30;99.90;;;;;;5049427;28;20604;-63
2024/02/07 09:11:49;;;;;;;5.03;1.60;;;7.40;99.90;;;;;;5050858;28;20683;-64
2024/02/07 09:14:16;;;;;;;2.37;1.60;;;7.40;99.90;;;;;;5043448;28;20261;-64
2024/02/07 09:16:43;;;;;;;2.87;1.20;;;7.60;99.90;;;;;;5048140;28;20225;-64
2024/02/07 09:19:11;;;;;;;3.83;1.47;;;7.70;99.90;;;;;;5050569;28;20563;-64
2024/02/07 09:21:38;;;;;;;2.00;1.20;;;7.70;99.90;;;;;;5050520;28;20208;-64
2024/02/07 09:24:07;;;;;;;2.03;1.10;;;7.70;99.90;;;;;;5050173;28;20212;-64
2024/02/07 09:26:34;;;;;;;1.73;1.00;;;7.70;99.90;;;;;;5050187;28;20202;-64
2024/02/07 09:29:01;;;;;;;2.73;1.30;;;7.70;99.90;;;;;;5050653;28;20214;-63
2024/02/07 09:31:29;;;;;;;4.70;1.43;;;7.80;99.90;;;;;;5050332;28;20207;-64
2024/02/07 09:33:55;;;;;;;2.80;1.43;;;7.90;99.90;;;;;;5050654;28;20260;-64
2024/02/07 09:36:24;;;;;;;1.67;1.00;;;8.00;99.90;;;;;;5049785;28;20201;-64
2024/02/07 09:38:51;;;;;;;2.17;1.00;;;8.10;99.90;;;;;;5051338;28;20316;-64
2024/02/07 09:41:22;;;;;;;2.70;1.27;;;8.20;99.90;;;;;;5037765;28;20657;-63
2024/02/07 09:43:52;;;;;;;3.17;1.40;;;8.20;99.90;;;;;;5050981;28;20193;-64
2024/02/07 09:46:20;;;;;;;2.03;1.17;;;8.20;99.90;;;;;;5049900;28;20197;-64
2024/02/07 09:48:49;;;;;;;3.50;1.20;;;8.30;99.90;;;;;;5052295;28;20309;-63
2024/02/07 09:51:17;;;;;;;1.00;0.77;;;8.40;99.90;;;;;;5053851;28;20211;-63
2024/02/07 09:53:47;;;;;;;1.70;1.10;;;8.50;99.90;;;;;;5054823;28;20763;-64
2024/02/07 09:56:14;;;;;;;1.70;1.00;;;8.60;99.90;;;;;;5052612;28;20287;-64
2024/02/07 09:58:42;;;;;;;2.00;1.00;;;8.70;99.90;;;;;;5054911;28;20206;-64
2024/02/07 10:01:12;;;;;;;5.77;2.87;;;8.90;99.90;;;;;;5053806;28;20284;-64
2024/02/07 10:03:45;;;;;;;3.30;1.70;;;9.00;99.90;;;;;;5053755;28;20230;-64
2024/02/07 10:06:13;;;;;;;1.67;1.07;;;9.20;99.90;;;;;;5053839;28;20214;-64
2024/02/07 10:08:40;;;;;;;2.50;1.10;;;9.30;99.90;;;;;;5053181;28;20221;-64
2024/02/07 10:11:10;;;;;;;0.90;0.80;;;9.40;99.90;;;;;;5045922;28;20199;-64
2024/02/07 10:13:38;;;;;;;0.80;0.80;;;9.50;99.90;;;;;;5053995;28;20224;-64
2024/02/07 10:16:07;;;;;;;0.73;0.73;;;9.60;99.90;;;;;;5053104;28;20200;-64
2024/02/07 10:18:34;;;;;;;1.10;0.80;;;9.70;99.90;;;;;;5053485;28;20258;-64
2024/02/07 10:21:02;;;;;;;1.60;1.10;;;9.80;99.90;;;;;;5053448;28;20627;-64
2024/02/07 10:23:29;;;;;;;1.17;0.90;;;9.90;99.90;;;;;;5053571;28;20274;-64
2024/02/07 10:25:59;;;;;;;1.13;0.97;;;10.10;99.90;;;;;;5052425;28;20211;-64
2024/02/07 10:28:27;;;;;;;1.57;0.80;;;10.10;99.90;;;;;;5053541;28;20230;-64
2024/02/07 10:30:59;;;;;;;0.83;0.80;;;10.20;99.90;;;;;;5053121;28;20319;-64
2024/02/07 10:33:34;;;;;;;0.70;0.70;;;10.30;99.90;;;;;;5053062;28;20211;-64
2024/02/07 10:36:01;;;;;;;1.43;0.93;;;10.60;99.90;;;;;;5049980;28;20219;-65
2024/02/07 10:38:29;;;;;;;1.50;1.07;;;11.10;99.20;;;;;;5045694;28;20617;-64
2024/02/07 10:40:56;;;;;;;0.60;0.60;;;11.30;98.70;;;;;;5052115;28;20205;-65
2024/02/07 10:43:29;;;;;;;1.23;0.70;;;11.60;98.70;;;;;;5053672;28;20683;-65
2024/02/07 10:46:00;;;;;;;0.80;0.80;;;12.00;97.70;;;;;;5052851;28;20635;-65
2024/02/07 10:48:28;;;;;;;0.80;0.73;;;12.30;97.20;;;;;;5053071;28;20199;-65
2024/02/07 10:50:55;;;;;;;0.60;0.60;;;12.40;96.80;;;;;;5053046;28;20207;-64
2024/02/07 10:53:23;;;;;;;1.23;1.00;;;12.20;96.40;;;;;;5052873;28;20206;-64
2024/02/07 10:55:51;;;;;;;0.70;0.70;;;12.10;95.60;;;;;;5051909;28;20204;-64
2024/02/07 10:58:22;;;;;;;0.70;0.70;;;11.80;95.60;;;;;;5053524;28;20277;-64
2024/02/07 11:00:52;;;;;;;0.80;0.80;;;11.40;95.40;;;;;;5052547;28;20615;-64
2024/02/07 11:03:20;;;;;;;0.63;0.63;;;11.10;95.20;;;;;;5051991;28;20616;-64
2024/02/07 11:05:48;;;;;;;0.70;0.70;;;10.70;95.30;;;;;;5052935;28;20556;-64
2024/02/07 11:08:15;;;;;;;0.70;0.57;;;10.30;95.30;;;;;;5052835;28;20675;-64
2024/02/07 11:10:43;;;;;;;0.70;0.60;;;10.00;95.70;;;;;;5051408;28;20209;-64
2024/02/07 11:13:11;;;;;;;0.50;0.50;;;9.70;96.70;;;;;;5052792;28;20272;-65
2024/02/07 11:15:38;;;;;;;0.40;0.40;;;9.40;97.20;;;;;;5052510;28;20224;-64
2024/02/07 11:18:09;;;;;;;0.40;0.40;;;9.20;97.60;;;;;;5035667;28;20568;-65
2024/02/07 11:20:36;;;;;;;0.70;0.70;;;9.00;97.90;;;;;;5053214;28;20280;-65
2024/02/07 11:23:07;;;;;;;2.70;0.70;;;8.80;98.20;;;;;;5051834;28;20651;-64
2024/02/07 11:25:36;;;;;;;1.40;0.80;;;8.80;98.00;;;;;;5051484;28;20207;-64
2024/02/07 11:28:04;;;;;;;0.93;0.50;;;8.70;97.80;;;;;;5052666;28;20339;-64
2024/02/07 11:30:31;;;;;;;0.60;0.50;;;8.70;97.80;;;;;;5039407;28;20675;-65
2024/02/07 11:32:58;;;;;;;0.70;0.70;;;8.70;97.90;;;;;;5052015;28;20186;-64
2024/02/07 11:35:31;;;;;;;0.50;0.50;;;8.70;97.90;;;;;;5052508;28;20247;-64
2024/02/07 11:38:03;;;;;;;1.30;0.80;;;8.60;98.00;;;;;;5052383;28;20199;-64
2024/02/07 11:40:38;;;;;;;0.93;0.53;;;8.60;98.10;;;;;;5047895;28;20678;-65
2024/02/07 11:43:07;;;;;;;0.60;0.60;;;8.60;98.20;;;;;;5050888;28;20680;-65
2024/02/07 11:45:37;;;;;;;0.70;0.70;;;8.60;98.40;;;;;;5052151;28;20198;-65
2024/02/07 11:48:16;;;;;;;1.60;0.80;;;8.60;98.50;;;;;;5049785;28;20277;-65
2024/02/07 11:50:45;;;;;;;0.77;0.77;;;8.70;98.60;;;;;;5051943;28;20582;-65
2024/02/07 11:53:20;;;;;;;2.20;1.20;;;8.70;98.60;;;;;;5051752;28;20253;-65
2024/02/07 11:55:48;;;;;;;1.00;1.00;;;8.70;98.60;;;;;;5048394;28;20248;-64
2024/02/07 11:58:17;;;;;;;2.53;0.97;;;8.80;98.80;;;;;;5052198;28;20568;-64
2024/02/07 12:00:46;;;;;;;1.47;1.37;;;8.90;98.70;;;;;;5051410;28;20195;-64
2024/02/07 12:03:14;;;;;;;3.33;1.80;;;9.00;98.80;;;;;;5051308;28;20242;-64
2024/02/07 12:05:45;;;;;;;1.83;1.23;;;9.00;98.70;;;;;;5051655;28;20673;-64
2024/02/07 12:08:14;;;;;;;2.20;1.20;;;8.90;98.40;;;;;;5045762;28;20200;-64
2024/02/07 12:10:41;;;;;;;1.00;0.90;;;8.80;98.20;;;;;;5049855;28;20223;-64
2024/02/07 12:13:09;;;;;;;0.70;0.70;;;8.80;98.20;;;;;;5050769;28;20196;-64
2024/02/07 12:15:36;;;;;;;1.07;0.80;;;8.70;98.20;;;;;;5051663;28;20247;-64
2024/02/07 12:18:05;;;;;;;1.80;0.90;;;8.60;98.20;;;;;;5048228;28;20195;-65
2024/02/07 12:20:32;;;;;;;1.20;0.90;;;8.60;98.20;;;;;;5051439;28;20271;-65
2024/02/07 12:23:01;;;;;;;1.43;0.90;;;8.60;97.80;;;;;;5049177;28;20244;-64
2024/02/07 12:25:29;;;;;;;1.07;0.83;;;8.60;97.80;;;;;;5049608;28;20217;-65
2024/02/07 12:27:56;;;;;;;1.23;0.90;;;8.70;97.50;;;;;;5051591;28;20740;-64
2024/02/07 12:30:23;;;;;;;1.17;1.00;;;8.70;97.50;;;;;;5045568;28;20280;-64
2024/02/07 12:32:50;;;;;;;1.20;0.80;;;8.70;97.50;;;;;;5050588;28;20593;-65
2024/02/07 12:35:19;;;;;;;0.90;0.90;;;8.80;97.60;;;;;;5051467;28;20287;-65
2024/02/07 12:37:48;;;;;;;1.63;1.00;;;8.80;97.60;;;;;;5051047;28;20694;-64
2024/02/07 12:40:17;;;;;;;1.20;1.00;;;8.90;97.40;;;;;;5049833;28;20196;-65
2024/02/07 12:42:44;;;;;;;0.73;0.73;;;8.90;97.40;;;;;;5051008;28;20204;-65
2024/02/07 12:45:12;;;;;;;1.57;1.10;;;8.90;97.10;;;;;;5051255;28;20615;-64
2024/02/07 12:47:39;;;;;;;1.10;1.10;;;9.00;96.50;;;;;;5050372;28;20258;-64
2024/02/07 12:50:08;;;;;;;1.10;1.00;;;8.90;96.50;;;;;;5050948;28;20614;-64
2024/02/07 12:52:37;;;;;;;1.77;1.40;;;8.80;96.60;;;;;;5050330;28;20253;-65
2024/02/07 12:55:05;;;;;;;0.87;0.87;;;8.70;96.30;;;;;;5049674;28;20573;-64
2024/02/07 12:57:34;;;;;;;0.90;0.90;;;8.60;95.80;;;;;;5043413;28;20253;-64
2024/02/07 13:00:10;;;;;;;1.27;0.87;;;8.50;95.60;;;;;;5050763;28;20189;-65
2024/02/07 13:02:46;;;;;;;0.77;0.77;;;8.40;95.70;;;;;;5049039;28;20667;-64
2024/02/07 13:05:13;;;;;;;2.33;0.80;;;8.40;95.70;;;;;;5044496;28;20549;-64
2024/02/07 13:07:40;;;;;;;1.17;1.10;;;8.30;95.60;;;;;;5050129;28;20552;-64
2024/02/07 13:10:09;;;;;;;0.70;0.70;;;8.30;95.80;;;;;;5049471;28;20219;-64
2024/02/07 13:12:39;;;;;;;0.87;0.70;;;8.20;96.00;;;;;;5050844;28;20201;-65
2024/02/07 13:15:06;;;;;;;0.87;0.87;;;8.20;96.10;;;;;;5050449;28;20194;-63
2024/02/07 13:17:35;;;;;;;1.77;1.10;;;8.20;96.20;;;;;;5049172;28;20197;-63
2024/02/07 13:20:03;;;;;;;1.17;1.03;;;8.20;95.90;;;;;;5050634;28;20658;-64
2024/02/07 13:22:30;;;;;;;0.93;0.90;;;8.20;95.70;;;;;;5046429;28;20246;-63
2024/02/07 13:24:57;;;;;;;1.00;0.90;;;8.10;95.10;;;;;;5048930;28;20202;-64
2024/02/07 13:27:24;;;;;;;0.80;0.80;;;8.10;94.40;;;;;;5050099;28;20200;-64
2024/02/07 13:29:52;;;;;;;1.20;1.10;;;8.20;94.50;;;;;;5050789;28;20309;-64
2024/02/07 13:32:22;;;;;;;1.10;0.80;;;8.40;94.30;;;;;;5049887;28;20197;-64
2024/02/07 13:34:49;;;;;;;0.70;0.70;;;8.60;94.40;;;;;;5036037;28;20537;-64
2024/02/07 13:37:16;;;;;;;0.70;0.70;;;8.60;93.90;;;;;;5049500;28;20288;-64
2024/02/07 13:39:44;;;;;;;0.93;0.90;;;8.70;93.80;;;;;;5048831;28;20259;-62
2024/02/07 13:42:11;;;;;;;0.83;0.83;;;8.70;93.50;;;;;;5050324;28;20264;-64
2024/02/07 13:44:38;;;;;;;0.80;0.80;;;8.60;93.50;;;;;;5050304;28;20214;-65
2024/02/07 13:47:07;;;;;;;0.67;0.60;;;8.60;93.70;;;;;;5049992;28;20195;-64
2024/02/07 13:49:34;;;;;;;0.70;0.70;;;8.40;93.70;;;;;;5049934;28;20212;-64
2024/02/07 13:52:02;;;;;;;1.13;0.60;;;8.40;93.90;;;;;;5049954;28;20226;-64
2024/02/07 13:54:32;;;;;;;0.93;0.83;;;8.30;93.70;;;;;;5048786;28;20273;-64
2024/02/07 13:56:59;;;;;;;0.60;0.60;;;8.20;93.50;;;;;;5048589;28;20187;-64
2024/02/07 13:59:26;;;;;;;0.70;0.70;;;8.20;93.60;;;;;;5049933;28;20195;-64
2024/02/07 14:01:53;;;;;;;0.70;0.60;;;8.10;93.80;;;;;;5050115;28;20195;-65
2024/02/07 14:04:21;;;;;;;0.67;0.67;;;8.00;93.60;;;;;;5049509;28;20240;-64